weather.gov     
National Weather Service

Terminal Aerodrome Forecast
NWS Homepage
This page is being discontinued on March 12, 2014.
The same data is available at this site. Please update your bookmarks.
Thank you, and we apologize for the inconvenience.
Please send an email to SR-SRH.Webmaster@noaa.gov with any concerns.


Current Version
Previous Version:    01  02  03  04  05  06  07  08  09  10  11  12  13  14  15  16  17  18  19  20  21  22  23  24  25  26  27  28  29  30  
   31  32  33  34  35  36  37  38  39  40  41  
[Printable]
660
FTUS42 KGSP 221307 AAA
TAFGSP
TAF AMD
KGSP 221307Z 2213/2312 04011KT 4SM -DZ BR OVC007
      TEMPO 2213/2215 2SM -DZ BR OVC008
     FM221500 04008KT 6SM BR OVC009
     FM221800 05008KT P6SM OVC012
     FM230100 05008KT 4SM -DZ BR OVC007
     FM230400 05008KT 3SM -RA BR OVC005
     FM230800 04007KT 2SM -RA BR OVC003=


660
FTUS42 KGSP 221307 AAA
TAFGSP
TAF AMD
KGSP 221307Z 2213/2312 04011KT 4SM -DZ BR OVC007
      TEMPO 2213/2215 2SM -DZ BR OVC008
     FM221500 04008KT 6SM BR OVC009
     FM221800 05008KT P6SM OVC012
     FM230100 05008KT 4SM -DZ BR OVC007
     FM230400 05008KT 3SM -RA BR OVC005
     FM230800 04007KT 2SM -RA BR OVC003=




U.S. Dept. of Commerce
NOAA National Weather Service
1325 East West Highway
Silver Spring, MD 20910
E-mail: w-nws.webmaster@noaa.gov
Page last modified: May 16, 2007
NATIONAL WEATHER SERVICE: for Safety, for Work, for Fun - FOR LIFE